EZY87JQ EGCC-LGKR
Flight info
| Callsign | EZY87JQ |
|---|---|
| Flight time | 3h 7m |
| Altitude | 35000 |
| Route | DESIG L603 DOLAS DCT NAVPI DCT NOLRU DCT DOJOH DCT DODEN DCT NEGIX DCT DINKU M867 XERUM DCT BAVAX DCT RADIZ DCT DEGUM DCT DABAR DCT PALEZ DCT DIGOT DCT NUPSO DCT OKLAX DCT SPL DCT RILIM DCT AIOSA DCT ENOXA DCT KAPPO DCT TIGRA |
| Aircraft | A21N/M-SDE2E3FGHIJ1RWXYZ/LB1G1 |
Departure
| Time | 2026-05-06 14:23 |
|---|---|
| Airport | Manchester Airport (EGCC) |
Arrival
| Time | 2026-05-06 17:30 |
|---|---|
| Airport | Corfu Ioannis Kapodistrias International Airport (LGKR) |
| Time | Latitude | Longitude | Altitude | Speed | Heading |
|---|---|---|---|---|---|
| 2026-05-06 13:17 | 53.36010 | -2.26925 | 254 ft | 0 kts | 314° |
| 2026-05-06 13:26 | 53.36010 | -2.26924 | 254 ft | 0 kts | 314° |
| 2026-05-06 14:01 | 53.36013 | -2.26782 | 256 ft | 0 kts | 227° |
| 2026-05-06 14:01 | 53.35988 | -2.26823 | 249 ft | 5 kts | 211° |
| 2026-05-06 14:01 | 53.36029 | -2.26750 | 256 ft | 0 kts | 207° |
| 2026-05-06 14:09 | 53.36029 | -2.26749 | 256 ft | 0 kts | 207° |
| 2026-05-06 14:13 | 53.36025 | -2.26753 | 256 ft | 3 kts | 207° |
| 2026-05-06 14:13 | 53.36006 | -2.26772 | 255 ft | 4 kts | 211° |
| 2026-05-06 14:14 | 53.35993 | -2.26786 | 255 ft | 0 kts | 211° |
| 2026-05-06 14:14 | 53.35990 | -2.26789 | 255 ft | 2 kts | 212° |
| 2026-05-06 14:14 | 53.35974 | -2.26808 | 255 ft | 4 kts | 218° |
| 2026-05-06 14:14 | 53.35943 | -2.26850 | 254 ft | 7 kts | 215° |
| 2026-05-06 14:15 | 53.35892 | -2.26910 | 253 ft | 10 kts | 216° |
| 2026-05-06 14:15 | 53.35835 | -2.27004 | 252 ft | 13 kts | 233° |
| 2026-05-06 14:15 | 53.35777 | -2.27131 | 250 ft | 15 kts | 232° |
| 2026-05-06 14:15 | 53.35711 | -2.27268 | 249 ft | 16 kts | 231° |
| 2026-05-06 14:16 | 53.35639 | -2.27415 | 247 ft | 17 kts | 230° |
| 2026-05-06 14:16 | 53.35562 | -2.27571 | 245 ft | 18 kts | 231° |
| 2026-05-06 14:16 | 53.35484 | -2.27734 | 243 ft | 18 kts | 231° |
| 2026-05-06 14:16 | 53.35446 | -2.27837 | 242 ft | 9 kts | 244° |
| 2026-05-06 14:17 | 53.35416 | -2.27940 | 241 ft | 10 kts | 244° |
| 2026-05-06 14:17 | 53.35377 | -2.28049 | 240 ft | 12 kts | 232° |
| 2026-05-06 14:17 | 53.35319 | -2.28152 | 238 ft | 13 kts | 226° |
| 2026-05-06 14:17 | 53.35255 | -2.28264 | 237 ft | 14 kts | 226° |
| 2026-05-06 14:18 | 53.35190 | -2.28384 | 235 ft | 15 kts | 229° |
| 2026-05-06 14:18 | 53.35124 | -2.28519 | 234 ft | 15 kts | 232° |
| 2026-05-06 14:18 | 53.35055 | -2.28665 | 233 ft | 16 kts | 231° |
| 2026-05-06 14:18 | 53.34977 | -2.28809 | 230 ft | 17 kts | 226° |
| 2026-05-06 14:19 | 53.34939 | -2.28874 | 229 ft | 0 kts | 224° |
| 2026-05-06 14:19 | 53.34937 | -2.28877 | 229 ft | 1 kts | 224° |
| 2026-05-06 14:19 | 53.34924 | -2.28899 | 229 ft | 3 kts | 224° |
| 2026-05-06 14:19 | 53.34904 | -2.28932 | 228 ft | 5 kts | 224° |
| 2026-05-06 14:20 | 53.34871 | -2.28987 | 227 ft | 8 kts | 224° |
| 2026-05-06 14:20 | 53.34841 | -2.29038 | 227 ft | 10 kts | 227° |
| 2026-05-06 14:20 | 53.34788 | -2.29134 | 225 ft | 13 kts | 227° |
| 2026-05-06 14:20 | 53.34727 | -2.29258 | 223 ft | 14 kts | 233° |
| 2026-05-06 14:21 | 53.34673 | -2.29344 | 222 ft | 9 kts | 215° |
| 2026-05-06 14:21 | 53.34533 | -2.29251 | 221 ft | 0 kts | 56° |
| 2026-05-06 14:21 | 53.34536 | -2.29244 | 221 ft | 4 kts | 56° |
| 2026-05-06 14:22 | 53.34557 | -2.29189 | 222 ft | 7 kts | 58° |
| 2026-05-06 14:22 | 53.34587 | -2.29118 | 221 ft | 8 kts | 51° |
| 2026-05-06 14:22 | 53.34694 | -2.28900 | 225 ft | 55 kts | 51° |
| 2026-05-06 14:22 | 53.35075 | -2.28111 | 236 ft | 117 kts | 50° |
| 2026-05-06 14:23 | 53.35698 | -2.26829 | 255 ft | 164 kts | 51° |
| 2026-05-06 14:23 | 53.36385 | -2.25370 | 904 ft | 151 kts | 52° |
| 2026-05-06 14:23 | 53.37049 | -2.23954 | 1366 ft | 163 kts | 51° |
| 2026-05-06 14:23 | 53.37828 | -2.22347 | 1724 ft | 192 kts | 52° |
| 2026-05-06 14:24 | 53.38706 | -2.20491 | 2293 ft | 210 kts | 52° |
| 2026-05-06 14:24 | 53.39662 | -2.18466 | 2705 ft | 236 kts | 52° |
| 2026-05-06 14:24 | 53.40725 | -2.16210 | 3311 ft | 247 kts | 52° |
| 2026-05-06 14:24 | 53.41785 | -2.13959 | 3942 ft | 252 kts | 52° |
| 2026-05-06 14:25 | 53.42882 | -2.11636 | 4598 ft | 255 kts | 52° |
| 2026-05-06 14:25 | 53.43972 | -2.09319 | 5236 ft | 256 kts | 51° |
| 2026-05-06 14:25 | 53.45086 | -2.06943 | 5894 ft | 259 kts | 51° |
| 2026-05-06 14:25 | 53.46208 | -2.04555 | 6553 ft | 262 kts | 50° |
| 2026-05-06 14:26 | 53.47353 | -2.02115 | 7246 ft | 270 kts | 50° |
| 2026-05-06 14:26 | 53.48525 | -1.99606 | 8023 ft | 276 kts | 50° |
| 2026-05-06 14:26 | 53.49710 | -1.97048 | 8884 ft | 278 kts | 50° |
| 2026-05-06 14:26 | 53.50906 | -1.94467 | 9752 ft | 282 kts | 50° |
| 2026-05-06 14:27 | 53.52100 | -1.91799 | 10420 ft | 293 kts | 55° |
| 2026-05-06 14:27 | 53.52909 | -1.88538 | 10766 ft | 315 kts | 75° |
| 2026-05-06 14:27 | 53.53026 | -1.84757 | 11121 ft | 336 kts | 98° |
| 2026-05-06 14:27 | 53.52235 | -1.81003 | 11661 ft | 348 kts | 119° |
| 2026-05-06 14:28 | 53.51006 | -1.77459 | 12400 ft | 351 kts | 117° |
| 2026-05-06 14:28 | 53.50015 | -1.73727 | 13306 ft | 351 kts | 109° |
| 2026-05-06 14:28 | 53.49259 | -1.69818 | 14087 ft | 354 kts | 106° |
| 2026-05-06 14:28 | 53.48560 | -1.65824 | 14748 ft | 358 kts | 105° |
| 2026-05-06 14:29 | 53.47857 | -1.61789 | 15403 ft | 362 kts | 106° |
| 2026-05-06 14:29 | 53.47137 | -1.57702 | 16028 ft | 368 kts | 106° |
| 2026-05-06 14:29 | 53.46404 | -1.53569 | 16691 ft | 371 kts | 106° |
| 2026-05-06 14:29 | 53.45660 | -1.49408 | 17376 ft | 374 kts | 107° |
| 2026-05-06 14:30 | 53.44907 | -1.45206 | 18037 ft | 378 kts | 107° |
| 2026-05-06 14:30 | 53.44142 | -1.40963 | 18630 ft | 382 kts | 107° |
| 2026-05-06 14:30 | 53.43370 | -1.36684 | 19192 ft | 385 kts | 107° |
| 2026-05-06 14:30 | 53.42588 | -1.32370 | 19753 ft | 389 kts | 107° |
| 2026-05-06 14:31 | 53.41800 | -1.28017 | 20309 ft | 392 kts | 107° |
| 2026-05-06 14:31 | 53.41005 | -1.23631 | 20858 ft | 395 kts | 107° |
| 2026-05-06 14:31 | 53.40204 | -1.19216 | 21388 ft | 398 kts | 107° |
| 2026-05-06 14:31 | 53.39394 | -1.14764 | 21923 ft | 401 kts | 107° |
| 2026-05-06 14:32 | 53.38574 | -1.10280 | 22440 ft | 404 kts | 108° |
| 2026-05-06 14:32 | 53.37747 | -1.05775 | 22950 ft | 407 kts | 108° |
| 2026-05-06 14:32 | 53.36910 | -1.01228 | 23477 ft | 410 kts | 108° |
| 2026-05-06 14:32 | 53.36067 | -0.96653 | 23909 ft | 413 kts | 108° |
| 2026-05-06 14:33 | 53.35215 | -0.92026 | 24337 ft | 416 kts | 108° |
| 2026-05-06 14:33 | 53.34358 | -0.87390 | 24766 ft | 419 kts | 108° |
| 2026-05-06 14:33 | 53.33492 | -0.82728 | 25190 ft | 421 kts | 108° |
| 2026-05-06 14:33 | 53.32615 | -0.78030 | 25590 ft | 424 kts | 108° |
| 2026-05-06 14:34 | 53.31733 | -0.73300 | 26000 ft | 427 kts | 109° |
| 2026-05-06 14:34 | 53.30841 | -0.68544 | 26410 ft | 430 kts | 109° |
| 2026-05-06 14:34 | 53.29944 | -0.63766 | 26809 ft | 432 kts | 109° |
| 2026-05-06 14:34 | 53.29043 | -0.58977 | 27185 ft | 434 kts | 109° |
| 2026-05-06 14:35 | 53.28130 | -0.54141 | 27562 ft | 437 kts | 109° |
| 2026-05-06 14:35 | 53.27217 | -0.49287 | 27914 ft | 439 kts | 109° |
| 2026-05-06 14:35 | 53.26294 | -0.44413 | 28271 ft | 442 kts | 109° |
| 2026-05-06 14:35 | 53.25365 | -0.39513 | 28621 ft | 444 kts | 109° |
| 2026-05-06 14:36 | 53.24429 | -0.34589 | 28966 ft | 446 kts | 109° |
| 2026-05-06 14:36 | 53.23486 | -0.29641 | 29300 ft | 448 kts | 109° |
| 2026-05-06 14:36 | 53.22539 | -0.24674 | 29613 ft | 451 kts | 109° |
| 2026-05-06 14:36 | 53.21581 | -0.19676 | 29944 ft | 453 kts | 110° |
| 2026-05-06 14:37 | 53.20615 | -0.14662 | 30231 ft | 455 kts | 110° |
| 2026-05-06 14:37 | 53.19639 | -0.09636 | 30507 ft | 457 kts | 110° |
| 2026-05-06 14:37 | 53.18659 | -0.04581 | 30792 ft | 459 kts | 110° |
| 2026-05-06 14:37 | 53.17676 | 0.00488 | 31060 ft | 461 kts | 110° |
| 2026-05-06 14:38 | 53.16685 | 0.05574 | 31325 ft | 463 kts | 110° |
| 2026-05-06 14:38 | 53.15687 | 0.10674 | 31590 ft | 464 kts | 110° |
| 2026-05-06 14:38 | 53.14684 | 0.15799 | 31869 ft | 465 kts | 110° |
| 2026-05-06 14:38 | 53.13684 | 0.20915 | 32197 ft | 464 kts | 110° |
| 2026-05-06 14:39 | 53.12696 | 0.25962 | 32528 ft | 464 kts | 110° |
| 2026-05-06 14:39 | 53.11681 | 0.31122 | 32836 ft | 463 kts | 110° |
| 2026-05-06 14:39 | 53.10687 | 0.36143 | 33134 ft | 463 kts | 110° |
| 2026-05-06 14:39 | 53.09682 | 0.41222 | 33417 ft | 462 kts | 110° |
| 2026-05-06 14:40 | 53.08678 | 0.46302 | 33704 ft | 461 kts | 110° |
| 2026-05-06 14:40 | 53.07676 | 0.51369 | 33985 ft | 461 kts | 110° |
| 2026-05-06 14:40 | 53.06671 | 0.56424 | 34201 ft | 461 kts | 110° |
| 2026-05-06 14:40 | 53.05661 | 0.61477 | 34390 ft | 461 kts | 110° |
| 2026-05-06 14:41 | 53.04651 | 0.66521 | 34582 ft | 461 kts | 110° |
| 2026-05-06 14:41 | 53.03633 | 0.71581 | 34774 ft | 460 kts | 110° |
| 2026-05-06 14:41 | 53.02619 | 0.76620 | 34946 ft | 460 kts | 110° |
| 2026-05-06 14:41 | 53.01597 | 0.81671 | 35027 ft | 461 kts | 110° |
| 2026-05-06 14:42 | 52.99547 | 0.91737 | 35004 ft | 460 kts | 110° |
| 2026-05-06 14:42 | 52.97464 | 1.01778 | 34994 ft | 459 kts | 112° |
| 2026-05-06 14:43 | 52.95239 | 1.11706 | 34995 ft | 459 kts | 112° |
| 2026-05-06 14:43 | 52.92986 | 1.21616 | 34994 ft | 459 kts | 112° |
| 2026-05-06 14:44 | 52.90741 | 1.31500 | 34992 ft | 458 kts | 112° |
| 2026-05-06 14:45 | 52.87347 | 1.46304 | 34987 ft | 458 kts | 112° |
| 2026-05-06 14:45 | 52.85083 | 1.56154 | 34991 ft | 458 kts | 112° |
| 2026-05-06 14:46 | 52.82831 | 1.65911 | 34988 ft | 457 kts | 112° |
| 2026-05-06 14:46 | 52.80554 | 1.75703 | 34990 ft | 456 kts | 112° |
| 2026-05-06 14:47 | 52.78280 | 1.85466 | 34979 ft | 453 kts | 112° |
| 2026-05-06 14:47 | 52.76014 | 1.95167 | 34979 ft | 452 kts | 112° |
| 2026-05-06 14:48 | 52.73734 | 2.04836 | 34975 ft | 453 kts | 112° |
| 2026-05-06 14:48 | 52.71453 | 2.14494 | 34971 ft | 452 kts | 112° |
| 2026-05-06 14:49 | 52.69162 | 2.24145 | 34974 ft | 453 kts | 112° |
| 2026-05-06 14:49 | 52.66860 | 2.33783 | 34969 ft | 452 kts | 113° |
| 2026-05-06 14:50 | 52.64564 | 2.43355 | 34964 ft | 451 kts | 113° |
| 2026-05-06 14:50 | 52.62255 | 2.52949 | 34957 ft | 450 kts | 113° |
| 2026-05-06 14:51 | 52.59936 | 2.62534 | 34958 ft | 450 kts | 113° |
| 2026-05-06 14:51 | 52.57608 | 2.72107 | 34958 ft | 450 kts | 113° |
| 2026-05-06 14:52 | 52.55293 | 2.81600 | 34952 ft | 450 kts | 113° |
| 2026-05-06 14:52 | 52.52687 | 2.91027 | 34952 ft | 449 kts | 117° |
| 2026-05-06 14:53 | 52.50016 | 3.00225 | 34953 ft | 450 kts | 117° |
| 2026-05-06 14:53 | 52.47319 | 3.09472 | 34946 ft | 449 kts | 117° |
| 2026-05-06 14:54 | 52.44618 | 3.18701 | 34944 ft | 449 kts | 117° |
| 2026-05-06 14:54 | 52.41908 | 3.27917 | 34939 ft | 448 kts | 117° |
| 2026-05-06 14:55 | 52.39214 | 3.37061 | 34936 ft | 448 kts | 117° |
| 2026-05-06 14:55 | 52.36494 | 3.46259 | 34936 ft | 448 kts | 118° |
| 2026-05-06 14:56 | 52.33789 | 3.55360 | 34932 ft | 446 kts | 118° |
| 2026-05-06 14:56 | 52.31063 | 3.64490 | 34923 ft | 446 kts | 118° |
| 2026-05-06 14:57 | 52.28337 | 3.73604 | 34919 ft | 447 kts | 118° |
| 2026-05-06 14:57 | 52.25604 | 3.82706 | 34913 ft | 446 kts | 118° |
| 2026-05-06 14:58 | 52.22870 | 3.91774 | 34906 ft | 445 kts | 118° |
| 2026-05-06 14:58 | 52.20127 | 4.00833 | 34903 ft | 444 kts | 118° |
| 2026-05-06 14:59 | 52.17388 | 4.09832 | 34896 ft | 443 kts | 118° |
| 2026-05-06 14:59 | 52.14647 | 4.18821 | 34888 ft | 443 kts | 118° |
| 2026-05-06 15:00 | 52.11923 | 4.27723 | 34882 ft | 444 kts | 118° |
| 2026-05-06 15:00 | 52.09161 | 4.36716 | 34877 ft | 444 kts | 118° |
| 2026-05-06 15:01 | 52.06398 | 4.45676 | 34879 ft | 443 kts | 118° |
| 2026-05-06 15:01 | 52.03630 | 4.54609 | 34873 ft | 442 kts | 118° |
| 2026-05-06 15:02 | 52.00859 | 4.63526 | 34877 ft | 442 kts | 118° |
| 2026-05-06 15:02 | 51.98094 | 4.72389 | 34874 ft | 440 kts | 118° |
| 2026-05-06 15:03 | 51.95318 | 4.81252 | 34873 ft | 440 kts | 119° |
| 2026-05-06 15:03 | 51.92547 | 4.90082 | 34873 ft | 440 kts | 119° |
| 2026-05-06 15:04 | 51.89763 | 4.98911 | 34874 ft | 440 kts | 119° |
| 2026-05-06 15:04 | 51.86978 | 5.07708 | 34877 ft | 439 kts | 119° |
| 2026-05-06 15:05 | 51.84189 | 5.16497 | 34876 ft | 438 kts | 119° |
| 2026-05-06 15:05 | 51.81399 | 5.25253 | 34875 ft | 438 kts | 119° |
| 2026-05-06 15:06 | 51.78600 | 5.33997 | 34878 ft | 438 kts | 119° |
| 2026-05-06 15:06 | 51.76271 | 5.41260 | 34878 ft | 438 kts | 119° |
| 2026-05-06 15:07 | 51.73469 | 5.49975 | 34877 ft | 438 kts | 119° |
| 2026-05-06 15:07 | 51.70656 | 5.58674 | 34874 ft | 438 kts | 120° |
| 2026-05-06 15:08 | 51.67834 | 5.67374 | 34874 ft | 438 kts | 120° |
| 2026-05-06 15:08 | 51.65014 | 5.76049 | 34875 ft | 438 kts | 120° |
| 2026-05-06 15:09 | 51.62181 | 5.84729 | 34873 ft | 438 kts | 120° |
| 2026-05-06 15:09 | 51.59336 | 5.93400 | 34875 ft | 438 kts | 120° |
| 2026-05-06 15:10 | 51.56492 | 6.02048 | 34876 ft | 438 kts | 120° |
| 2026-05-06 15:10 | 51.53643 | 6.10700 | 34874 ft | 438 kts | 120° |
| 2026-05-06 15:11 | 51.50780 | 6.19346 | 34874 ft | 438 kts | 120° |
| 2026-05-06 15:11 | 51.47539 | 6.27535 | 34873 ft | 437 kts | 126° |
| 2026-05-06 15:12 | 51.44120 | 6.35580 | 34867 ft | 437 kts | 126° |
| 2026-05-06 15:12 | 51.40693 | 6.43643 | 34855 ft | 437 kts | 126° |
| 2026-05-06 15:13 | 51.37266 | 6.51691 | 34846 ft | 438 kts | 126° |
| 2026-05-06 15:13 | 51.33834 | 6.59732 | 34842 ft | 438 kts | 127° |
| 2026-05-06 15:14 | 51.30399 | 6.67758 | 34851 ft | 438 kts | 127° |
| 2026-05-06 15:14 | 51.26953 | 6.75784 | 34838 ft | 438 kts | 127° |
| 2026-05-06 15:15 | 51.23500 | 6.83796 | 34850 ft | 438 kts | 127° |
| 2026-05-06 15:15 | 51.20037 | 6.91817 | 34853 ft | 439 kts | 127° |
| 2026-05-06 15:16 | 51.16570 | 6.99820 | 34847 ft | 439 kts | 127° |
| 2026-05-06 15:16 | 51.13092 | 7.07816 | 34839 ft | 439 kts | 127° |
| 2026-05-06 15:17 | 51.09625 | 7.15764 | 34819 ft | 440 kts | 127° |
| 2026-05-06 15:17 | 51.06128 | 7.23725 | 34816 ft | 440 kts | 127° |
| 2026-05-06 15:18 | 51.02631 | 7.31721 | 34812 ft | 440 kts | 128° |
| 2026-05-06 15:18 | 50.99117 | 7.39714 | 34818 ft | 441 kts | 128° |
| 2026-05-06 15:19 | 50.95600 | 7.47666 | 34807 ft | 441 kts | 128° |
| 2026-05-06 15:19 | 50.92063 | 7.55608 | 34800 ft | 440 kts | 128° |
| 2026-05-06 15:20 | 50.88547 | 7.63545 | 34805 ft | 440 kts | 128° |
| 2026-05-06 15:20 | 50.85027 | 7.71467 | 34787 ft | 440 kts | 128° |
| 2026-05-06 15:21 | 50.80981 | 7.78622 | 34774 ft | 435 kts | 140° |
| 2026-05-06 15:21 | 50.76565 | 7.85147 | 34763 ft | 436 kts | 140° |
| 2026-05-06 15:22 | 50.72141 | 7.91690 | 34757 ft | 436 kts | 140° |
| 2026-05-06 15:22 | 50.67716 | 7.98237 | 34755 ft | 435 kts | 140° |
| 2026-05-06 15:23 | 50.63304 | 8.04750 | 34756 ft | 435 kts | 140° |
| 2026-05-06 15:23 | 50.59048 | 8.11536 | 34759 ft | 438 kts | 133° |
| 2026-05-06 15:24 | 50.55259 | 8.19020 | 34757 ft | 437 kts | 132° |
| 2026-05-06 15:24 | 50.51508 | 8.26446 | 34760 ft | 436 kts | 132° |
| 2026-05-06 15:25 | 50.47693 | 8.33932 | 34768 ft | 436 kts | 132° |
| 2026-05-06 15:25 | 50.43900 | 8.41339 | 34766 ft | 435 kts | 132° |
| 2026-05-06 15:26 | 50.40104 | 8.48730 | 34760 ft | 435 kts | 132° |
| 2026-05-06 15:26 | 50.36188 | 8.55928 | 34760 ft | 433 kts | 136° |
| 2026-05-06 15:27 | 50.32114 | 8.62755 | 34753 ft | 432 kts | 137° |
| 2026-05-06 15:27 | 50.28015 | 8.69606 | 34755 ft | 432 kts | 137° |
| 2026-05-06 15:28 | 50.23906 | 8.76464 | 34755 ft | 432 kts | 137° |
| 2026-05-06 15:28 | 50.19794 | 8.83307 | 34767 ft | 432 kts | 137° |
| 2026-05-06 15:29 | 50.15673 | 8.90140 | 34768 ft | 433 kts | 137° |
| 2026-05-06 15:29 | 50.11539 | 8.96986 | 34763 ft | 433 kts | 137° |
| 2026-05-06 15:30 | 50.07413 | 9.03797 | 34756 ft | 433 kts | 137° |
| 2026-05-06 15:30 | 50.03270 | 9.10616 | 34758 ft | 433 kts | 137° |
| 2026-05-06 15:31 | 49.99124 | 9.17420 | 34745 ft | 433 kts | 138° |
| 2026-05-06 15:31 | 49.94948 | 9.24257 | 34755 ft | 433 kts | 138° |
| 2026-05-06 15:32 | 49.88770 | 9.34339 | 34762 ft | 433 kts | 138° |
| 2026-05-06 15:32 | 49.84615 | 9.41093 | 34758 ft | 433 kts | 139° |
| 2026-05-06 15:33 | 49.80453 | 9.47846 | 34757 ft | 433 kts | 139° |
| 2026-05-06 15:33 | 49.76292 | 9.54577 | 34757 ft | 433 kts | 139° |
| 2026-05-06 15:34 | 49.72123 | 9.61306 | 34761 ft | 433 kts | 139° |
| 2026-05-06 15:34 | 49.67955 | 9.68011 | 34770 ft | 432 kts | 140° |
| 2026-05-06 15:35 | 49.63785 | 9.74703 | 34775 ft | 432 kts | 140° |
| 2026-05-06 15:35 | 49.59618 | 9.81369 | 34782 ft | 432 kts | 140° |
| 2026-05-06 15:36 | 49.55449 | 9.88007 | 34783 ft | 431 kts | 140° |
| 2026-05-06 15:36 | 49.51273 | 9.94646 | 34780 ft | 431 kts | 140° |
| 2026-05-06 15:37 | 49.47099 | 10.01261 | 34783 ft | 430 kts | 141° |
| 2026-05-06 15:37 | 49.42935 | 10.07849 | 34784 ft | 430 kts | 141° |
| 2026-05-06 15:38 | 49.38764 | 10.14436 | 34784 ft | 430 kts | 141° |
| 2026-05-06 15:38 | 49.34590 | 10.21016 | 34785 ft | 430 kts | 141° |
| 2026-05-06 15:39 | 49.30414 | 10.27582 | 34785 ft | 430 kts | 141° |
| 2026-05-06 15:39 | 49.26225 | 10.34149 | 34785 ft | 431 kts | 141° |
| 2026-05-06 15:40 | 49.21765 | 10.40025 | 34789 ft | 420 kts | 154° |
| 2026-05-06 15:40 | 49.16777 | 10.44585 | 34789 ft | 417 kts | 156° |
| 2026-05-06 15:41 | 49.11778 | 10.49083 | 34787 ft | 417 kts | 156° |
| 2026-05-06 15:41 | 49.06787 | 10.53600 | 34783 ft | 416 kts | 155° |
| 2026-05-06 15:42 | 49.01812 | 10.58111 | 34783 ft | 416 kts | 156° |
| 2026-05-06 15:42 | 48.96836 | 10.62605 | 34784 ft | 416 kts | 156° |
| 2026-05-06 15:43 | 48.91853 | 10.67103 | 34779 ft | 416 kts | 156° |
| 2026-05-06 15:43 | 48.86895 | 10.71569 | 35106 ft | 413 kts | 156° |
| 2026-05-06 15:44 | 48.84422 | 10.73784 | 35342 ft | 412 kts | 156° |
| 2026-05-06 15:44 | 48.81981 | 10.76098 | 35392 ft | 419 kts | 151° |
| 2026-05-06 15:44 | 48.79722 | 10.78992 | 35336 ft | 431 kts | 141° |
| 2026-05-06 15:44 | 48.77669 | 10.82343 | 35138 ft | 435 kts | 139° |
| 2026-05-06 15:45 | 48.75701 | 10.85702 | 34911 ft | 435 kts | 139° |
| 2026-05-06 15:45 | 48.73656 | 10.89192 | 34723 ft | 433 kts | 139° |
| 2026-05-06 15:45 | 48.69651 | 10.95946 | 34712 ft | 433 kts | 140° |
| 2026-05-06 15:46 | 48.65603 | 11.02709 | 34721 ft | 434 kts | 140° |
| 2026-05-06 15:46 | 48.61550 | 11.09463 | 34730 ft | 434 kts | 140° |
| 2026-05-06 15:47 | 48.57483 | 11.16214 | 34727 ft | 434 kts | 140° |
| 2026-05-06 15:47 | 48.53422 | 11.22954 | 34732 ft | 433 kts | 140° |
| 2026-05-06 15:48 | 48.49368 | 11.29654 | 34723 ft | 432 kts | 140° |
| 2026-05-06 15:48 | 48.45724 | 11.35649 | 34719 ft | 432 kts | 140° |
| 2026-05-06 15:49 | 48.41658 | 11.42336 | 34742 ft | 432 kts | 140° |
| 2026-05-06 15:49 | 48.37595 | 11.48998 | 34753 ft | 432 kts | 140° |
| 2026-05-06 15:50 | 48.33528 | 11.55653 | 34769 ft | 432 kts | 140° |
| 2026-05-06 15:50 | 48.29458 | 11.62315 | 34777 ft | 433 kts | 140° |
| 2026-05-06 15:51 | 48.25310 | 11.68845 | 34777 ft | 429 kts | 144° |
| 2026-05-06 15:51 | 48.20957 | 11.74851 | 34770 ft | 428 kts | 145° |
| 2026-05-06 15:52 | 48.16552 | 11.80884 | 34753 ft | 429 kts | 145° |
| 2026-05-06 15:52 | 48.12856 | 11.85942 | 34738 ft | 430 kts | 145° |
| 2026-05-06 15:53 | 48.08442 | 11.91984 | 34714 ft | 431 kts | 145° |
| 2026-05-06 15:53 | 48.04001 | 11.98053 | 34688 ft | 432 kts | 145° |
| 2026-05-06 15:54 | 47.99556 | 12.04107 | 34679 ft | 433 kts | 145° |
| 2026-05-06 15:54 | 47.95102 | 12.10155 | 34673 ft | 433 kts | 146° |
| 2026-05-06 15:55 | 47.90648 | 12.16193 | 34665 ft | 433 kts | 146° |
| 2026-05-06 15:55 | 47.86187 | 12.22234 | 34662 ft | 432 kts | 146° |
| 2026-05-06 15:56 | 47.81737 | 12.28230 | 34658 ft | 432 kts | 146° |
| 2026-05-06 15:56 | 47.77278 | 12.34221 | 34664 ft | 431 kts | 146° |
| 2026-05-06 15:57 | 47.72828 | 12.40196 | 34670 ft | 431 kts | 146° |
| 2026-05-06 15:57 | 47.68371 | 12.46162 | 34662 ft | 431 kts | 146° |
| 2026-05-06 15:58 | 47.63919 | 12.52116 | 34660 ft | 430 kts | 146° |
| 2026-05-06 15:58 | 47.59216 | 12.57401 | 34680 ft | 422 kts | 153° |
| 2026-05-06 15:59 | 47.54374 | 12.62320 | 34669 ft | 423 kts | 154° |
| 2026-05-06 15:59 | 47.49570 | 12.67205 | 34675 ft | 421 kts | 153° |
| 2026-05-06 16:00 | 47.44719 | 12.72156 | 34686 ft | 420 kts | 154° |
| 2026-05-06 16:00 | 47.39937 | 12.77015 | 34697 ft | 420 kts | 153° |
| 2026-05-06 16:01 | 47.35128 | 12.81913 | 34712 ft | 420 kts | 153° |
| 2026-05-06 16:01 | 47.30310 | 12.86791 | 34722 ft | 420 kts | 153° |
| 2026-05-06 16:02 | 47.25490 | 12.91659 | 34730 ft | 421 kts | 153° |
| 2026-05-06 16:02 | 47.20658 | 12.96533 | 34747 ft | 421 kts | 153° |
| 2026-05-06 16:03 | 47.15817 | 13.01410 | 34774 ft | 423 kts | 153° |
| 2026-05-06 16:03 | 47.10960 | 13.06291 | 34754 ft | 423 kts | 153° |
| 2026-05-06 16:04 | 47.06041 | 13.11209 | 34799 ft | 434 kts | 153° |
| 2026-05-06 16:04 | 47.00992 | 13.16257 | 34815 ft | 444 kts | 152° |
| 2026-05-06 16:05 | 46.95822 | 13.21405 | 34837 ft | 454 kts | 152° |
| 2026-05-06 16:05 | 46.90571 | 13.26647 | 34844 ft | 459 kts | 152° |
| 2026-05-06 16:06 | 46.85267 | 13.31913 | 34840 ft | 462 kts | 152° |
| 2026-05-06 16:06 | 46.79943 | 13.37190 | 34855 ft | 463 kts | 152° |
| 2026-05-06 16:07 | 46.74605 | 13.42451 | 34857 ft | 464 kts | 152° |
| 2026-05-06 16:07 | 46.69286 | 13.47698 | 34856 ft | 448 kts | 152° |
| 2026-05-06 16:08 | 46.66756 | 13.50196 | 34842 ft | 432 kts | 152° |
| 2026-05-06 16:08 | 46.64310 | 13.52597 | 34845 ft | 431 kts | 152° |
| 2026-05-06 16:08 | 46.59267 | 13.57524 | 34879 ft | 442 kts | 152° |
| 2026-05-06 16:09 | 46.54105 | 13.62566 | 34883 ft | 452 kts | 152° |
| 2026-05-06 16:09 | 46.48846 | 13.67705 | 34892 ft | 459 kts | 152° |
| 2026-05-06 16:10 | 46.43689 | 13.72977 | 34876 ft | 440 kts | 150° |
| 2026-05-06 16:10 | 46.38791 | 13.78168 | 34882 ft | 436 kts | 150° |
| 2026-05-06 16:11 | 46.33835 | 13.83397 | 34899 ft | 446 kts | 150° |
| 2026-05-06 16:11 | 46.28752 | 13.88726 | 34921 ft | 456 kts | 150° |
| 2026-05-06 16:12 | 46.23576 | 13.94164 | 34908 ft | 462 kts | 149° |
| 2026-05-06 16:12 | 46.18361 | 13.99629 | 34905 ft | 465 kts | 149° |
| 2026-05-06 16:13 | 46.13122 | 14.05111 | 34925 ft | 466 kts | 149° |
| 2026-05-06 16:13 | 46.07867 | 14.10592 | 34919 ft | 467 kts | 149° |
| 2026-05-06 16:14 | 46.02588 | 14.16095 | 34910 ft | 469 kts | 149° |
| 2026-05-06 16:14 | 45.97292 | 14.21585 | 34923 ft | 470 kts | 149° |
| 2026-05-06 16:15 | 45.91984 | 14.27090 | 34934 ft | 472 kts | 149° |
| 2026-05-06 16:15 | 45.86679 | 14.32581 | 34939 ft | 473 kts | 149° |
| 2026-05-06 16:16 | 45.81323 | 14.38090 | 34940 ft | 474 kts | 149° |
| 2026-05-06 16:16 | 45.75969 | 14.43600 | 34945 ft | 475 kts | 149° |
| 2026-05-06 16:17 | 45.70560 | 14.49156 | 34943 ft | 476 kts | 149° |
| 2026-05-06 16:17 | 45.65207 | 14.54618 | 34945 ft | 476 kts | 149° |
| 2026-05-06 16:18 | 45.59811 | 14.60125 | 34945 ft | 477 kts | 149° |
| 2026-05-06 16:18 | 45.54419 | 14.65630 | 34951 ft | 477 kts | 149° |
| 2026-05-06 16:19 | 45.49015 | 14.71114 | 34955 ft | 477 kts | 149° |
| 2026-05-06 16:19 | 45.43593 | 14.76601 | 34955 ft | 478 kts | 149° |
| 2026-05-06 16:20 | 45.38170 | 14.82077 | 34948 ft | 479 kts | 149° |
| 2026-05-06 16:20 | 45.32736 | 14.87563 | 34950 ft | 479 kts | 149° |
| 2026-05-06 16:21 | 45.27291 | 14.93036 | 34948 ft | 480 kts | 149° |
| 2026-05-06 16:21 | 45.21829 | 14.98518 | 34943 ft | 481 kts | 149° |
| 2026-05-06 16:22 | 45.16362 | 15.03988 | 34935 ft | 481 kts | 149° |
| 2026-05-06 16:22 | 45.10896 | 15.09457 | 34935 ft | 481 kts | 149° |
| 2026-05-06 16:23 | 45.05422 | 15.14913 | 34935 ft | 482 kts | 149° |
| 2026-05-06 16:23 | 44.99936 | 15.20367 | 34940 ft | 482 kts | 149° |
| 2026-05-06 16:24 | 44.94445 | 15.25807 | 34937 ft | 483 kts | 150° |
| 2026-05-06 16:24 | 44.88640 | 15.30442 | 34947 ft | 478 kts | 157° |
| 2026-05-06 16:25 | 44.82742 | 15.34781 | 34953 ft | 479 kts | 157° |
| 2026-05-06 16:25 | 44.76826 | 15.39129 | 34956 ft | 480 kts | 157° |
| 2026-05-06 16:26 | 44.70896 | 15.43484 | 34970 ft | 481 kts | 157° |
| 2026-05-06 16:26 | 44.64953 | 15.47850 | 34972 ft | 482 kts | 158° |
| 2026-05-06 16:27 | 44.59003 | 15.52203 | 34973 ft | 483 kts | 158° |
| 2026-05-06 16:27 | 44.53047 | 15.56563 | 35019 ft | 483 kts | 157° |
| 2026-05-06 16:28 | 44.47143 | 15.60942 | 35019 ft | 484 kts | 157° |
| 2026-05-06 16:28 | 44.41266 | 15.65373 | 35015 ft | 465 kts | 157° |
| 2026-05-06 16:29 | 44.38490 | 15.67515 | 35016 ft | 448 kts | 156° |
| 2026-05-06 16:29 | 44.35773 | 15.69637 | 35015 ft | 449 kts | 156° |
| 2026-05-06 16:29 | 44.30349 | 15.73920 | 35022 ft | 445 kts | 156° |
| 2026-05-06 16:30 | 44.25818 | 15.77548 | 35048 ft | 452 kts | 155° |
| 2026-05-06 16:30 | 44.19445 | 15.82706 | 35091 ft | 449 kts | 155° |
| 2026-05-06 16:31 | 44.14006 | 15.87180 | 35138 ft | 459 kts | 155° |
| 2026-05-06 16:31 | 44.11302 | 15.89429 | 35158 ft | 447 kts | 154° |
| 2026-05-06 16:31 | 44.08680 | 15.91640 | 35176 ft | 438 kts | 154° |
| 2026-05-06 16:32 | 44.03429 | 15.96113 | 35240 ft | 448 kts | 154° |
| 2026-05-06 16:32 | 43.98101 | 16.00699 | 35310 ft | 449 kts | 153° |
| 2026-05-06 16:33 | 43.92821 | 16.05312 | 35381 ft | 450 kts | 153° |
| 2026-05-06 16:34 | 43.84939 | 16.12320 | 35505 ft | 447 kts | 152° |
| 2026-05-06 16:34 | 43.79711 | 16.17052 | 35599 ft | 452 kts | 152° |
| 2026-05-06 16:35 | 43.74504 | 16.21814 | 35713 ft | 461 kts | 151° |
| 2026-05-06 16:35 | 43.69081 | 16.26826 | 35843 ft | 467 kts | 151° |
| 2026-05-06 16:36 | 43.63668 | 16.31884 | 35953 ft | 472 kts | 150° |
| 2026-05-06 16:36 | 43.58226 | 16.37027 | 36067 ft | 475 kts | 150° |
| 2026-05-06 16:37 | 43.52790 | 16.42230 | 36191 ft | 476 kts | 149° |
| 2026-05-06 16:37 | 43.47466 | 16.47404 | 36301 ft | 459 kts | 149° |
| 2026-05-06 16:38 | 43.42288 | 16.52524 | 36439 ft | 460 kts | 149° |
| 2026-05-06 16:38 | 43.37085 | 16.57729 | 36579 ft | 465 kts | 148° |
| 2026-05-06 16:39 | 43.31850 | 16.63025 | 36711 ft | 469 kts | 148° |
| 2026-05-06 16:39 | 43.26592 | 16.68406 | 36845 ft | 473 kts | 147° |
| 2026-05-06 16:40 | 43.21335 | 16.73851 | 36983 ft | 474 kts | 147° |
| 2026-05-06 16:40 | 43.16083 | 16.79356 | 37117 ft | 475 kts | 147° |
| 2026-05-06 16:41 | 43.11802 | 16.83906 | 37218 ft | 465 kts | 146° |
| 2026-05-06 16:41 | 43.06707 | 16.89390 | 37359 ft | 468 kts | 146° |
| 2026-05-06 16:42 | 43.01607 | 16.94945 | 37492 ft | 470 kts | 145° |
| 2026-05-06 16:42 | 42.96523 | 17.00551 | 37640 ft | 468 kts | 145° |
| 2026-05-06 16:43 | 42.91522 | 17.06146 | 37788 ft | 463 kts | 144° |
| 2026-05-06 16:43 | 42.86557 | 17.11771 | 37940 ft | 465 kts | 144° |
| 2026-05-06 16:44 | 42.81616 | 17.17440 | 38096 ft | 461 kts | 143° |
| 2026-05-06 16:44 | 42.76723 | 17.23128 | 38258 ft | 464 kts | 143° |
| 2026-05-06 16:44 | 42.74121 | 17.25825 | 37294 ft | 480 kts | 150° |
| 2026-05-06 16:45 | 42.71060 | 17.27636 | 36235 ft | 469 kts | 174° |
| 2026-05-06 16:45 | 42.67906 | 17.27711 | 35711 ft | 450 kts | 195° |
| 2026-05-06 16:45 | 42.64977 | 17.26408 | 34938 ft | 439 kts | 205° |
| 2026-05-06 16:45 | 42.62013 | 17.25546 | 34891 ft | 438 kts | 187° |
| 2026-05-06 16:46 | 42.58959 | 17.25921 | 34927 ft | 446 kts | 171° |
| 2026-05-06 16:46 | 42.52924 | 17.27724 | 34999 ft | 440 kts | 181° |
| 2026-05-06 16:47 | 42.46864 | 17.27692 | 35010 ft | 434 kts | 188° |
| 2026-05-06 16:47 | 42.40823 | 17.27317 | 35005 ft | 435 kts | 187° |
| 2026-05-06 16:48 | 42.34782 | 17.26986 | 35002 ft | 435 kts | 187° |
| 2026-05-06 16:48 | 42.28736 | 17.26678 | 34998 ft | 435 kts | 187° |
| 2026-05-06 16:49 | 42.22688 | 17.26367 | 34995 ft | 435 kts | 187° |
| 2026-05-06 16:49 | 42.16639 | 17.26055 | 34993 ft | 435 kts | 187° |
| 2026-05-06 16:50 | 42.10627 | 17.25746 | 34989 ft | 436 kts | 188° |
| 2026-05-06 16:50 | 42.04564 | 17.25437 | 34994 ft | 436 kts | 188° |
| 2026-05-06 16:51 | 41.98510 | 17.25126 | 34985 ft | 436 kts | 188° |
| 2026-05-06 16:51 | 41.92413 | 17.25379 | 34980 ft | 447 kts | 174° |
| 2026-05-06 16:51 | 41.89425 | 17.26666 | 34988 ft | 456 kts | 162° |
| 2026-05-06 16:52 | 41.86515 | 17.28382 | 34995 ft | 458 kts | 161° |
| 2026-05-06 16:52 | 41.80706 | 17.31898 | 34986 ft | 458 kts | 162° |
| 2026-05-06 16:53 | 41.74866 | 17.35309 | 34986 ft | 458 kts | 162° |
| 2026-05-06 16:53 | 41.69010 | 17.38709 | 34987 ft | 459 kts | 162° |
| 2026-05-06 16:54 | 41.63127 | 17.42130 | 34989 ft | 462 kts | 162° |
| 2026-05-06 16:54 | 41.57222 | 17.45555 | 34989 ft | 462 kts | 162° |
| 2026-05-06 16:55 | 41.51320 | 17.48970 | 34992 ft | 463 kts | 162° |
| 2026-05-06 16:55 | 41.45398 | 17.52386 | 34991 ft | 464 kts | 162° |
| 2026-05-06 16:56 | 41.39470 | 17.55796 | 34997 ft | 464 kts | 162° |
| 2026-05-06 16:56 | 41.33532 | 17.59207 | 35003 ft | 465 kts | 162° |
| 2026-05-06 16:57 | 41.27597 | 17.62615 | 35002 ft | 465 kts | 162° |
| 2026-05-06 16:57 | 41.21649 | 17.66020 | 35001 ft | 466 kts | 162° |
| 2026-05-06 16:58 | 41.15689 | 17.69422 | 35006 ft | 466 kts | 162° |
| 2026-05-06 16:58 | 41.09732 | 17.72814 | 35002 ft | 466 kts | 162° |
| 2026-05-06 16:59 | 41.03807 | 17.76182 | 35005 ft | 467 kts | 162° |
| 2026-05-06 16:59 | 40.97835 | 17.79566 | 35012 ft | 467 kts | 162° |
| 2026-05-06 17:00 | 40.91871 | 17.82944 | 35011 ft | 465 kts | 162° |
| 2026-05-06 17:00 | 40.88927 | 17.84613 | 34816 ft | 457 kts | 162° |
| 2026-05-06 17:00 | 40.86009 | 17.86262 | 34526 ft | 454 kts | 162° |
| 2026-05-06 17:00 | 40.83113 | 17.87896 | 34283 ft | 453 kts | 162° |
| 2026-05-06 17:01 | 40.80217 | 17.89528 | 34033 ft | 451 kts | 162° |
| 2026-05-06 17:01 | 40.77336 | 17.91148 | 33770 ft | 450 kts | 162° |
| 2026-05-06 17:01 | 40.74460 | 17.92763 | 33492 ft | 448 kts | 162° |
| 2026-05-06 17:01 | 40.71597 | 17.94371 | 33227 ft | 446 kts | 162° |
| 2026-05-06 17:02 | 40.68748 | 17.95970 | 32955 ft | 444 kts | 162° |
| 2026-05-06 17:02 | 40.65910 | 17.97561 | 32688 ft | 443 kts | 162° |
| 2026-05-06 17:02 | 40.63130 | 17.99320 | 32421 ft | 445 kts | 154° |
| 2026-05-06 17:02 | 40.60596 | 18.01698 | 32159 ft | 450 kts | 141° |
| 2026-05-06 17:03 | 40.58474 | 18.04729 | 31880 ft | 452 kts | 129° |
| 2026-05-06 17:03 | 40.56639 | 18.08080 | 31424 ft | 451 kts | 127° |
| 2026-05-06 17:03 | 40.54857 | 18.11462 | 30900 ft | 450 kts | 127° |
| 2026-05-06 17:03 | 40.53062 | 18.14820 | 30389 ft | 449 kts | 128° |
| 2026-05-06 17:04 | 40.51245 | 18.18164 | 29821 ft | 449 kts | 128° |
| 2026-05-06 17:04 | 40.49416 | 18.21496 | 29222 ft | 449 kts | 128° |
| 2026-05-06 17:04 | 40.47585 | 18.24816 | 28661 ft | 448 kts | 128° |
| 2026-05-06 17:04 | 40.45762 | 18.28123 | 28108 ft | 447 kts | 128° |
| 2026-05-06 17:05 | 40.43948 | 18.31421 | 27593 ft | 443 kts | 128° |
| 2026-05-06 17:05 | 40.42152 | 18.34680 | 27080 ft | 438 kts | 128° |
| 2026-05-06 17:05 | 40.40369 | 18.37907 | 26538 ft | 435 kts | 128° |
| 2026-05-06 17:05 | 40.38605 | 18.41092 | 26035 ft | 431 kts | 128° |
| 2026-05-06 17:06 | 40.36846 | 18.44265 | 25540 ft | 427 kts | 128° |
| 2026-05-06 17:06 | 40.35114 | 18.47388 | 25051 ft | 423 kts | 127° |
| 2026-05-06 17:06 | 40.33385 | 18.50502 | 24530 ft | 420 kts | 127° |
| 2026-05-06 17:06 | 40.31665 | 18.53593 | 24031 ft | 418 kts | 127° |
| 2026-05-06 17:07 | 40.29958 | 18.56659 | 23479 ft | 414 kts | 127° |
| 2026-05-06 17:07 | 40.28275 | 18.59679 | 22918 ft | 410 kts | 127° |
| 2026-05-06 17:07 | 40.26607 | 18.62670 | 22408 ft | 404 kts | 127° |
| 2026-05-06 17:07 | 40.24963 | 18.65616 | 21898 ft | 398 kts | 127° |
| 2026-05-06 17:08 | 40.23334 | 18.68525 | 21396 ft | 393 kts | 127° |
| 2026-05-06 17:08 | 40.21732 | 18.71387 | 20908 ft | 388 kts | 127° |
| 2026-05-06 17:08 | 40.20149 | 18.74220 | 20455 ft | 382 kts | 127° |
| 2026-05-06 17:08 | 40.18591 | 18.77006 | 20015 ft | 377 kts | 127° |
| 2026-05-06 17:09 | 40.17051 | 18.79754 | 19580 ft | 372 kts | 127° |
| 2026-05-06 17:09 | 40.15533 | 18.82460 | 19142 ft | 367 kts | 127° |
| 2026-05-06 17:09 | 40.14036 | 18.85126 | 18742 ft | 362 kts | 127° |
| 2026-05-06 17:09 | 40.12554 | 18.87760 | 18340 ft | 357 kts | 127° |
| 2026-05-06 17:10 | 40.11091 | 18.90357 | 17897 ft | 352 kts | 127° |
| 2026-05-06 17:10 | 40.09651 | 18.92912 | 17467 ft | 347 kts | 127° |
| 2026-05-06 17:10 | 40.08259 | 18.95383 | 17064 ft | 342 kts | 127° |
| 2026-05-06 17:10 | 40.06834 | 18.97911 | 16672 ft | 339 kts | 127° |
| 2026-05-06 17:11 | 40.05367 | 19.00296 | 16315 ft | 334 kts | 136° |
| 2026-05-06 17:11 | 40.03666 | 19.02328 | 15968 ft | 329 kts | 141° |
| 2026-05-06 17:11 | 40.01930 | 19.04248 | 15625 ft | 326 kts | 141° |
| 2026-05-06 17:11 | 40.00155 | 19.06200 | 15302 ft | 338 kts | 141° |
| 2026-05-06 17:12 | 39.98375 | 19.08171 | 14994 ft | 334 kts | 141° |
| 2026-05-06 17:12 | 39.96614 | 19.10130 | 14628 ft | 333 kts | 141° |
| 2026-05-06 17:12 | 39.94848 | 19.12096 | 14254 ft | 334 kts | 141° |
| 2026-05-06 17:12 | 39.93087 | 19.14060 | 13881 ft | 334 kts | 141° |
| 2026-05-06 17:13 | 39.91319 | 19.16029 | 13470 ft | 334 kts | 141° |
| 2026-05-06 17:13 | 39.89569 | 19.17981 | 13082 ft | 328 kts | 141° |
| 2026-05-06 17:13 | 39.87848 | 19.19901 | 12697 ft | 323 kts | 141° |
| 2026-05-06 17:13 | 39.86161 | 19.21786 | 12363 ft | 317 kts | 141° |
| 2026-05-06 17:14 | 39.84498 | 19.23640 | 12010 ft | 312 kts | 141° |
| 2026-05-06 17:14 | 39.82863 | 19.25461 | 11658 ft | 307 kts | 141° |
| 2026-05-06 17:14 | 39.81248 | 19.27256 | 11327 ft | 305 kts | 140° |
| 2026-05-06 17:14 | 39.79660 | 19.29019 | 11004 ft | 304 kts | 140° |
| 2026-05-06 17:15 | 39.78050 | 19.30807 | 10669 ft | 304 kts | 140° |
| 2026-05-06 17:15 | 39.76443 | 19.32590 | 10357 ft | 303 kts | 140° |
| 2026-05-06 17:15 | 39.74841 | 19.34365 | 10047 ft | 303 kts | 140° |
| 2026-05-06 17:15 | 39.73245 | 19.36133 | 9690 ft | 300 kts | 140° |
| 2026-05-06 17:16 | 39.71671 | 19.37875 | 9329 ft | 296 kts | 140° |
| 2026-05-06 17:16 | 39.70110 | 19.39601 | 8982 ft | 293 kts | 140° |
| 2026-05-06 17:16 | 39.68555 | 19.41319 | 8653 ft | 292 kts | 140° |
| 2026-05-06 17:16 | 39.66940 | 19.42864 | 8340 ft | 287 kts | 154° |
| 2026-05-06 17:17 | 39.65081 | 19.43791 | 8049 ft | 285 kts | 162° |
| 2026-05-06 17:17 | 39.63193 | 19.44588 | 7728 ft | 285 kts | 162° |
| 2026-05-06 17:17 | 39.61315 | 19.45395 | 7409 ft | 283 kts | 162° |
| 2026-05-06 17:17 | 39.59460 | 19.46214 | 7068 ft | 281 kts | 161° |
| 2026-05-06 17:18 | 39.57658 | 19.47147 | 6706 ft | 278 kts | 148° |
| 2026-05-06 17:18 | 39.56318 | 19.48909 | 6367 ft | 276 kts | 120° |
| 2026-05-06 17:18 | 39.55737 | 19.51260 | 6038 ft | 276 kts | 94° |
| 2026-05-06 17:18 | 39.55857 | 19.53731 | 5729 ft | 276 kts | 81° |
| 2026-05-06 17:19 | 39.56191 | 19.56181 | 5420 ft | 276 kts | 81° |
| 2026-05-06 17:19 | 39.56519 | 19.58632 | 5117 ft | 276 kts | 81° |
| 2026-05-06 17:19 | 39.56842 | 19.61082 | 4792 ft | 276 kts | 81° |
| 2026-05-06 17:19 | 39.57180 | 19.63513 | 4401 ft | 272 kts | 81° |
| 2026-05-06 17:20 | 39.57503 | 19.65889 | 4027 ft | 270 kts | 81° |
| 2026-05-06 17:20 | 39.57823 | 19.68298 | 3820 ft | 265 kts | 81° |
| 2026-05-06 17:20 | 39.58123 | 19.70610 | 3616 ft | 257 kts | 82° |
| 2026-05-06 17:20 | 39.58411 | 19.72883 | 3310 ft | 255 kts | 82° |
| 2026-05-06 17:21 | 39.58694 | 19.75202 | 2881 ft | 267 kts | 82° |
| 2026-05-06 17:21 | 39.58985 | 19.77565 | 2554 ft | 264 kts | 82° |
| 2026-05-06 17:21 | 39.59271 | 19.79882 | 2371 ft | 255 kts | 81° |
| 2026-05-06 17:21 | 39.59546 | 19.82108 | 2244 ft | 245 kts | 82° |
| 2026-05-06 17:22 | 39.59806 | 19.84243 | 2118 ft | 235 kts | 82° |
| 2026-05-06 17:22 | 39.60057 | 19.86293 | 1978 ft | 224 kts | 82° |
| 2026-05-06 17:22 | 39.60295 | 19.88232 | 1862 ft | 211 kts | 82° |
| 2026-05-06 17:22 | 39.60522 | 19.90083 | 1854 ft | 201 kts | 81° |
| 2026-05-06 17:23 | 39.60726 | 19.91776 | 1923 ft | 189 kts | 82° |
| 2026-05-06 17:23 | 39.60797 | 19.92377 | 1935 ft | 188 kts | 82° |
| 2026-05-06 17:23 | 39.60990 | 19.94061 | 2002 ft | 189 kts | 82° |
| 2026-05-06 17:23 | 39.61175 | 19.95745 | 2043 ft | 190 kts | 83° |
| 2026-05-06 17:24 | 39.61203 | 19.97445 | 2040 ft | 188 kts | 100° |
| 2026-05-06 17:24 | 39.60747 | 19.98999 | 2031 ft | 187 kts | 123° |
| 2026-05-06 17:24 | 39.59841 | 20.00177 | 1963 ft | 185 kts | 149° |
| 2026-05-06 17:24 | 39.58615 | 20.00675 | 1885 ft | 184 kts | 178° |
| 2026-05-06 17:25 | 39.57381 | 20.00369 | 1841 ft | 182 kts | 205° |
| 2026-05-06 17:25 | 39.56423 | 19.99366 | 1815 ft | 181 kts | 233° |
| 2026-05-06 17:25 | 39.55938 | 19.97871 | 1820 ft | 182 kts | 261° |
| 2026-05-06 17:25 | 39.56060 | 19.96260 | 1844 ft | 182 kts | 288° |
| 2026-05-06 17:26 | 39.56764 | 19.94891 | 1871 ft | 186 kts | 316° |
| 2026-05-06 17:26 | 39.57896 | 19.94089 | 1932 ft | 188 kts | 343° |
| 2026-05-06 17:26 | 39.59174 | 19.93744 | 1987 ft | 188 kts | 349° |
| 2026-05-06 17:26 | 39.60442 | 19.93485 | 1834 ft | 180 kts | 348° |
| 2026-05-06 17:27 | 39.61247 | 19.93229 | 1722 ft | 172 kts | 342° |
| 2026-05-06 17:27 | 39.62367 | 19.92775 | 1674 ft | 163 kts | 341° |
| 2026-05-06 17:27 | 39.63369 | 19.92390 | 1632 ft | 145 kts | 344° |
| 2026-05-06 17:27 | 39.64358 | 19.92124 | 1565 ft | 145 kts | 349° |
| 2026-05-06 17:28 | 39.65357 | 19.91924 | 1528 ft | 146 kts | 351° |
| 2026-05-06 17:28 | 39.66329 | 19.91609 | 1503 ft | 144 kts | 328° |
| 2026-05-06 17:28 | 39.66841 | 19.90565 | 1394 ft | 141 kts | 269° |
| 2026-05-06 17:28 | 39.66337 | 19.89590 | 1199 ft | 138 kts | 200° |
| 2026-05-06 17:29 | 39.65422 | 19.89771 | 799 ft | 138 kts | 150° |
| 2026-05-06 17:29 | 39.64535 | 19.90198 | 662 ft | 137 kts | 173° |
| 2026-05-06 17:29 | 39.63589 | 19.90329 | 543 ft | 136 kts | 172° |
| 2026-05-06 17:29 | 39.62661 | 19.90576 | 406 ft | 137 kts | 169° |
| 2026-05-06 17:30 | 39.61729 | 19.90813 | 225 ft | 135 kts | 170° |
| 2026-05-06 17:30 | 39.60809 | 19.91053 | 37 ft | 134 kts | 170° |
| 2026-05-06 17:30 | 39.59985 | 19.91269 | 23 ft | 93 kts | 168° |
| 2026-05-06 17:30 | 39.59618 | 19.91364 | 19 ft | 34 kts | 169° |
| 2026-05-06 17:31 | 39.59422 | 19.91415 | 17 ft | 27 kts | 168° |
| 2026-05-06 17:31 | 39.59258 | 19.91458 | 19 ft | 20 kts | 168° |
| 2026-05-06 17:31 | 39.59183 | 19.91490 | 18 ft | 11 kts | 163° |
| 2026-05-06 17:31 | 39.59217 | 19.91481 | 20 ft | 13 kts | 348° |
| 2026-05-06 17:32 | 39.59313 | 19.91456 | 18 ft | 15 kts | 348° |
| 2026-05-06 17:32 | 39.59419 | 19.91428 | 17 ft | 17 kts | 348° |
| 2026-05-06 17:32 | 39.59541 | 19.91396 | 18 ft | 19 kts | 348° |
| 2026-05-06 17:32 | 39.59678 | 19.91359 | 19 ft | 21 kts | 348° |
| 2026-05-06 17:33 | 39.59833 | 19.91318 | 25 ft | 24 kts | 348° |
| 2026-05-06 17:33 | 39.60001 | 19.91274 | 21 ft | 25 kts | 348° |
| 2026-05-06 17:33 | 39.60181 | 19.91226 | 22 ft | 27 kts | 348° |
| 2026-05-06 17:33 | 39.60369 | 19.91177 | 20 ft | 28 kts | 350° |
| 2026-05-06 17:34 | 39.60546 | 19.91171 | 19 ft | 6 kts | 9° |
| 2026-05-06 17:34 | 39.60547 | 19.91171 | 19 ft | 0 kts | 9° |
| 2026-05-06 17:34 | 39.60552 | 19.91172 | 19 ft | 2 kts | 10° |
| 2026-05-06 17:35 | 39.60578 | 19.91181 | 20 ft | 0 kts | 16° |
| 2026-05-06 17:36 | 39.60588 | 19.91186 | 20 ft | 3 kts | 25° |
| 2026-05-06 17:36 | 39.60595 | 19.91195 | 20 ft | 5 kts | 42° |
| 2026-05-06 17:39 | 39.60599 | 19.91199 | 20 ft | 5 kts | 42° |
| 2026-05-06 17:39 | 39.60612 | 19.91214 | 22 ft | 0 kts | 39° |
| 2026-05-06 17:40 | 39.60613 | 19.91215 | 22 ft | 1 kts | 39° |
| 2026-05-06 17:41 | 39.60621 | 19.91222 | 21 ft | 3 kts | 31° |
| 2026-05-06 17:41 | 39.60647 | 19.91226 | 20 ft | 5 kts | 1° |
| 2026-05-06 17:41 | 39.60690 | 19.91228 | 20 ft | 7 kts | 4° |
| 2026-05-06 17:42 | 39.60745 | 19.91251 | 20 ft | 9 kts | 27° |
| 2026-05-06 17:42 | 39.60759 | 19.91261 | 20 ft | 0 kts | 25° |
| 2026-05-06 17:43 | 39.65776 | 19.89558 | 1004 ft | 138 kts | 167° |
| 2026-05-06 17:44 | 39.62265 | 19.90678 | 356 ft | 0 kts | 170° |
| 2026-05-06 17:44 | 39.61338 | 19.90916 | 123 ft | 0 kts | 169° |
| 2026-05-06 17:44 | 39.60430 | 19.91150 | 20 ft | 0 kts | 169° |
| 2026-05-06 17:44 | 39.63029 | 19.90475 | 482 ft | 0 kts | 168° |
| 2026-05-06 17:45 | 39.62089 | 19.90722 | 312 ft | 0 kts | 170° |
| 2026-05-06 17:45 | 39.61167 | 19.90960 | 91 ft | 0 kts | 169° |
| 2026-05-06 17:45 | 39.60271 | 19.91195 | 21 ft | 0 kts | 168° |
| 2026-05-06 17:45 | 39.59709 | 19.91341 | 20 ft | 0 kts | 168° |
| 2026-05-06 17:46 | 39.59496 | 19.91396 | 18 ft | 0 kts | 168° |
| 2026-05-06 17:46 | 39.59311 | 19.91444 | 17 ft | 0 kts | 168° |
| 2026-05-06 17:46 | 39.59291 | 19.91449 | 13 ft | 0 kts | 168° |
| 2026-05-06 17:46 | 39.59292 | 19.91449 | 12 ft | 0 kts | 168° |
| 2026-05-06 17:53 | 39.63776 | 19.92267 | 1596 ft | 0 kts | 347° |
| 2026-05-06 17:53 | 39.64767 | 19.92033 | 1555 ft | 0 kts | 349° |
| 2026-05-06 17:53 | 53.36010 | -2.26925 | 218 ft | 0 kts | 170° |